sensor_id;sensor_type;location;lat;lon;timestamp;temperature;humidity
33827;DHT22;20128;45.582;5.298;2022-09-09T00:04:05;23.70;61.10
33827;DHT22;20128;45.582;5.298;2022-09-09T00:06:56;23.60;61.50
33827;DHT22;20128;45.582;5.298;2022-09-09T00:09:27;23.60;61.90
33827;DHT22;20128;45.582;5.298;2022-09-09T00:12:14;23.60;61.90
33827;DHT22;20128;45.582;5.298;2022-09-09T00:14:57;23.60;61.60
33827;DHT22;20128;45.582;5.298;2022-09-09T00:17:33;23.50;61.80
33827;DHT22;20128;45.582;5.298;2022-09-09T00:20:21;23.40;62.00
33827;DHT22;20128;45.582;5.298;2022-09-09T00:25:45;23.40;62.50
33827;DHT22;20128;45.582;5.298;2022-09-09T00:28:25;23.40;62.30
33827;DHT22;20128;45.582;5.298;2022-09-09T00:30:52;23.40;62.40
33827;DHT22;20128;45.582;5.298;2022-09-09T00:33:21;23.50;62.50
33827;DHT22;20128;45.582;5.298;2022-09-09T00:35:51;23.50;62.30
33827;DHT22;20128;45.582;5.298;2022-09-09T00:38:38;23.50;62.10
33827;DHT22;20128;45.582;5.298;2022-09-09T00:44:25;23.40;62.40
33827;DHT22;20128;45.582;5.298;2022-09-09T00:50:05;23.40;62.40
33827;DHT22;20128;45.582;5.298;2022-09-09T00:52:44;23.40;62.40
33827;DHT22;20128;45.582;5.298;2022-09-09T00:55:31;23.40;62.40
33827;DHT22;20128;45.582;5.298;2022-09-09T00:57:59;23.40;62.40
33827;DHT22;20128;45.582;5.298;2022-09-09T01:00:30;23.40;62.40
33827;DHT22;20128;45.582;5.298;2022-09-09T01:11:22;23.30;62.40
33827;DHT22;20128;45.582;5.298;2022-09-09T01:13:54;23.30;62.20
33827;DHT22;20128;45.582;5.298;2022-09-09T01:16:24;23.20;62.30
33827;DHT22;20128;45.582;5.298;2022-09-09T01:18:52;23.10;62.00
33827;DHT22;20128;45.582;5.298;2022-09-09T01:21:27;23.00;62.20
33827;DHT22;20128;45.582;5.298;2022-09-09T01:26:46;22.90;62.60
33827;DHT22;20128;45.582;5.298;2022-09-09T01:29:15;22.80;62.30
33827;DHT22;20128;45.582;5.298;2022-09-09T01:32:02;22.60;62.70
33827;DHT22;20128;45.582;5.298;2022-09-09T01:34:34;22.50;63.20
33827;DHT22;20128;45.582;5.298;2022-09-09T01:37:04;22.40;63.10
33827;DHT22;20128;45.582;5.298;2022-09-09T01:39:33;22.40;63.50
33827;DHT22;20128;45.582;5.298;2022-09-09T01:42:00;22.40;63.60
33827;DHT22;20128;45.582;5.298;2022-09-09T01:44:27;22.40;63.00
33827;DHT22;20128;45.582;5.298;2022-09-09T01:46:53;22.40;63.30
33827;DHT22;20128;45.582;5.298;2022-09-09T02:00:05;22.50;63.40
33827;DHT22;20128;45.582;5.298;2022-09-09T02:07:50;22.60;63.30
33827;DHT22;20128;45.582;5.298;2022-09-09T02:13:14;22.70;63.10
33827;DHT22;20128;45.582;5.298;2022-09-09T02:15:55;22.80;62.50
33827;DHT22;20128;45.582;5.298;2022-09-09T02:18:29;22.60;62.40
33827;DHT22;20128;45.582;5.298;2022-09-09T02:20:56;22.30;63.00
33827;DHT22;20128;45.582;5.298;2022-09-09T02:23:24;22.40;63.10
33827;DHT22;20128;45.582;5.298;2022-09-09T02:25:51;22.40;63.20
33827;DHT22;20128;45.582;5.298;2022-09-09T02:28:20;22.50;63.30
33827;DHT22;20128;45.582;5.298;2022-09-09T02:30:49;22.60;63.20
33827;DHT22;20128;45.582;5.298;2022-09-09T02:33:22;22.70;62.80
33827;DHT22;20128;45.582;5.298;2022-09-09T02:35:50;22.70;62.60
33827;DHT22;20128;45.582;5.298;2022-09-09T02:38:17;22.80;62.50
33827;DHT22;20128;45.582;5.298;2022-09-09T02:40:45;22.80;62.30
33827;DHT22;20128;45.582;5.298;2022-09-09T02:43:11;22.80;62.20
33827;DHT22;20128;45.582;5.298;2022-09-09T02:45:43;22.70;61.30
33827;DHT22;20128;45.582;5.298;2022-09-09T02:48:21;22.50;61.40
33827;DHT22;20128;45.582;5.298;2022-09-09T02:53:50;22.30;61.80
33827;DHT22;20128;45.582;5.298;2022-09-09T02:56:21;22.00;61.40
33827;DHT22;20128;45.582;5.298;2022-09-09T02:58:48;21.60;62.10
33827;DHT22;20128;45.582;5.298;2022-09-09T03:01:15;21.20;63.50
33827;DHT22;20128;45.582;5.298;2022-09-09T03:03:41;21.10;63.80
33827;DHT22;20128;45.582;5.298;2022-09-09T03:06:07;21.20;64.60
33827;DHT22;20128;45.582;5.298;2022-09-09T03:08:33;21.40;64.60
33827;DHT22;20128;45.582;5.298;2022-09-09T03:10:59;21.70;64.40
33827;DHT22;20128;45.582;5.298;2022-09-09T03:13:26;21.80;64.00
33827;DHT22;20128;45.582;5.298;2022-09-09T03:15:52;22.00;63.50
33827;DHT22;20128;45.582;5.298;2022-09-09T03:18:18;22.00;63.20
33827;DHT22;20128;45.582;5.298;2022-09-09T03:20:43;22.10;62.70
33827;DHT22;20128;45.582;5.298;2022-09-09T03:23:12;22.10;62.70
33827;DHT22;20128;45.582;5.298;2022-09-09T03:25:38;22.10;62.70
33827;DHT22;20128;45.582;5.298;2022-09-09T03:28:04;22.10;62.80
33827;DHT22;20128;45.582;5.298;2022-09-09T03:30:33;22.20;62.50
33827;DHT22;20128;45.582;5.298;2022-09-09T03:32:58;22.20;62.00
33827;DHT22;20128;45.582;5.298;2022-09-09T03:35:24;22.10;61.30
33827;DHT22;20128;45.582;5.298;2022-09-09T03:37:50;22.00;61.40
33827;DHT22;20128;45.582;5.298;2022-09-09T03:40:16;21.90;61.00
33827;DHT22;20128;45.582;5.298;2022-09-09T03:42:41;21.90;61.80
33827;DHT22;20128;45.582;5.298;2022-09-09T03:45:08;21.90;62.30
33827;DHT22;20128;45.582;5.298;2022-09-09T03:47:35;21.90;62.30
33827;DHT22;20128;45.582;5.298;2022-09-09T03:50:01;22.00;62.30
33827;DHT22;20128;45.582;5.298;2022-09-09T03:52:27;22.00;62.30
33827;DHT22;20128;45.582;5.298;2022-09-09T03:54:53;22.00;62.20
33827;DHT22;20128;45.582;5.298;2022-09-09T03:57:20;22.00;61.90
33827;DHT22;20128;45.582;5.298;2022-09-09T03:59:46;21.90;61.60
33827;DHT22;20128;45.582;5.298;2022-09-09T04:02:11;21.90;62.10
33827;DHT22;20128;45.582;5.298;2022-09-09T04:04:37;21.70;61.70
33827;DHT22;20128;45.582;5.298;2022-09-09T04:07:03;21.30;61.60
33827;DHT22;20128;45.582;5.298;2022-09-09T04:09:32;20.90;62.70
33827;DHT22;20128;45.582;5.298;2022-09-09T04:11:58;21.00;62.80
33827;DHT22;20128;45.582;5.298;2022-09-09T04:14:23;21.00;63.00
33827;DHT22;20128;45.582;5.298;2022-09-09T04:16:54;21.00;62.90
33827;DHT22;20128;45.582;5.298;2022-09-09T04:19:20;21.10;62.90
33827;DHT22;20128;45.582;5.298;2022-09-09T04:21:46;21.20;62.50
33827;DHT22;20128;45.582;5.298;2022-09-09T04:24:15;21.20;62.70
33827;DHT22;20128;45.582;5.298;2022-09-09T04:26:41;21.30;63.00
33827;DHT22;20128;45.582;5.298;2022-09-09T04:29:09;21.40;62.80
33827;DHT22;20128;45.582;5.298;2022-09-09T04:31:35;21.50;62.90
33827;DHT22;20128;45.582;5.298;2022-09-09T04:34:01;21.50;62.10
33827;DHT22;20128;45.582;5.298;2022-09-09T04:36:31;21.50;62.10
33827;DHT22;20128;45.582;5.298;2022-09-09T04:38:57;21.40;61.90
33827;DHT22;20128;45.582;5.298;2022-09-09T04:41:23;21.20;61.30
33827;DHT22;20128;45.582;5.298;2022-09-09T04:43:49;20.80;61.50
33827;DHT22;20128;45.582;5.298;2022-09-09T04:46:15;20.30;62.60
33827;DHT22;20128;45.582;5.298;2022-09-09T04:48:44;19.90;63.90
33827;DHT22;20128;45.582;5.298;2022-09-09T04:51:12;19.80;64.80
33827;DHT22;20128;45.582;5.298;2022-09-09T04:53:38;19.80;65.10
33827;DHT22;20128;45.582;5.298;2022-09-09T04:56:13;20.00;64.90
33827;DHT22;20128;45.582;5.298;2022-09-09T04:58:40;20.10;64.50
33827;DHT22;20128;45.582;5.298;2022-09-09T05:01:19;20.20;64.30
33827;DHT22;20128;45.582;5.298;2022-09-09T05:03:45;20.30;64.10
33827;DHT22;20128;45.582;5.298;2022-09-09T05:06:16;20.40;63.80
33827;DHT22;20128;45.582;5.298;2022-09-09T05:08:44;20.40;63.60
33827;DHT22;20128;45.582;5.298;2022-09-09T05:11:30;20.30;63.60
33827;DHT22;20128;45.582;5.298;2022-09-09T05:13:56;20.10;64.00
33827;DHT22;20128;45.582;5.298;2022-09-09T05:16:22;20.00;64.60
33827;DHT22;20128;45.582;5.298;2022-09-09T05:18:48;20.00;64.70
33827;DHT22;20128;45.582;5.298;2022-09-09T05:21:17;19.90;64.60
33827;DHT22;20128;45.582;5.298;2022-09-09T05:23:44;19.90;64.70
33827;DHT22;20128;45.582;5.298;2022-09-09T05:26:13;19.90;64.80
33827;DHT22;20128;45.582;5.298;2022-09-09T05:28:39;19.80;64.80
33827;DHT22;20128;45.582;5.298;2022-09-09T05:31:07;19.80;64.90
33827;DHT22;20128;45.582;5.298;2022-09-09T05:33:34;19.90;64.90
33827;DHT22;20128;45.582;5.298;2022-09-09T05:36:05;20.00;64.90
33827;DHT22;20128;45.582;5.298;2022-09-09T05:38:33;20.00;64.70
33827;DHT22;20128;45.582;5.298;2022-09-09T05:41:00;20.10;64.40
33827;DHT22;20128;45.582;5.298;2022-09-09T05:43:27;19.90;64.60
33827;DHT22;20128;45.582;5.298;2022-09-09T05:46:04;19.80;64.90
33827;DHT22;20128;45.582;5.298;2022-09-09T05:48:40;19.80;65.00
33827;DHT22;20128;45.582;5.298;2022-09-09T05:51:10;19.80;65.00
33827;DHT22;20128;45.582;5.298;2022-09-09T05:53:38;19.70;65.10
33827;DHT22;20128;45.582;5.298;2022-09-09T05:56:08;19.70;65.20
33827;DHT22;20128;45.582;5.298;2022-09-09T05:58:36;19.70;65.40
33827;DHT22;20128;45.582;5.298;2022-09-09T06:03:39;19.70;65.60
33827;DHT22;20128;45.582;5.298;2022-09-09T06:06:07;19.60;65.60
33827;DHT22;20128;45.582;5.298;2022-09-09T06:08:38;19.60;66.10
33827;DHT22;20128;45.582;5.298;2022-09-09T06:11:06;19.60;66.40
33827;DHT22;20128;45.582;5.298;2022-09-09T06:13:32;19.60;66.40
33827;DHT22;20128;45.582;5.298;2022-09-09T06:15:58;19.60;66.50
33827;DHT22;20128;45.582;5.298;2022-09-09T06:18:24;19.60;66.40
33827;DHT22;20128;45.582;5.298;2022-09-09T06:21:01;19.60;66.50
33827;DHT22;20128;45.582;5.298;2022-09-09T06:23:30;19.50;67.00
33827;DHT22;20128;45.582;5.298;2022-09-09T06:26:09;19.50;67.20
33827;DHT22;20128;45.582;5.298;2022-09-09T06:28:36;19.60;67.20
33827;DHT22;20128;45.582;5.298;2022-09-09T06:31:07;19.70;67.20
33827;DHT22;20128;45.582;5.298;2022-09-09T06:33:37;19.70;67.30
33827;DHT22;20128;45.582;5.298;2022-09-09T06:36:10;19.80;67.50
33827;DHT22;20128;45.582;5.298;2022-09-09T06:38:36;19.90;67.60
33827;DHT22;20128;45.582;5.298;2022-09-09T06:41:02;19.90;67.60
33827;DHT22;20128;45.582;5.298;2022-09-09T06:43:28;19.90;67.30
33827;DHT22;20128;45.582;5.298;2022-09-09T06:45:59;19.90;67.20
33827;DHT22;20128;45.582;5.298;2022-09-09T06:48:26;19.70;67.70
33827;DHT22;20128;45.582;5.298;2022-09-09T06:51:14;19.60;68.10
33827;DHT22;20128;45.582;5.298;2022-09-09T06:53:42;19.50;68.40
33827;DHT22;20128;45.582;5.298;2022-09-09T06:58:40;19.30;69.10
33827;DHT22;20128;45.582;5.298;2022-09-09T07:01:14;19.20;69.60
33827;DHT22;20128;45.582;5.298;2022-09-09T07:03:41;19.20;69.50
33827;DHT22;20128;45.582;5.298;2022-09-09T07:06:14;19.20;69.40
33827;DHT22;20128;45.582;5.298;2022-09-09T07:08:42;19.00;69.60
33827;DHT22;20128;45.582;5.298;2022-09-09T07:11:08;19.00;69.90
33827;DHT22;20128;45.582;5.298;2022-09-09T07:13:35;19.10;70.90
33827;DHT22;20128;45.582;5.298;2022-09-09T07:16:08;19.30;70.90
33827;DHT22;20128;45.582;5.298;2022-09-09T07:18:33;19.40;70.60
33827;DHT22;20128;45.582;5.298;2022-09-09T07:21:01;19.50;70.00
33827;DHT22;20128;45.582;5.298;2022-09-09T07:23:28;19.60;70.20
33827;DHT22;20128;45.582;5.298;2022-09-09T07:25:53;19.70;68.70
33827;DHT22;20128;45.582;5.298;2022-09-09T07:28:20;19.80;68.30
33827;DHT22;20128;45.582;5.298;2022-09-09T07:31:00;19.90;67.50
33827;DHT22;20128;45.582;5.298;2022-09-09T07:33:29;20.00;67.30
33827;DHT22;20128;45.582;5.298;2022-09-09T07:36:07;20.10;67.10
33827;DHT22;20128;45.582;5.298;2022-09-09T07:38:48;20.10;67.30
33827;DHT22;20128;45.582;5.298;2022-09-09T07:41:17;20.20;68.20
33827;DHT22;20128;45.582;5.298;2022-09-09T07:43:46;20.30;67.80
33827;DHT22;20128;45.582;5.298;2022-09-09T07:46:14;20.40;67.00
33827;DHT22;20128;45.582;5.298;2022-09-09T07:48:48;20.50;67.70
33827;DHT22;20128;45.582;5.298;2022-09-09T07:51:18;20.60;67.60
33827;DHT22;20128;45.582;5.298;2022-09-09T07:53:46;20.70;66.50
33827;DHT22;20128;45.582;5.298;2022-09-09T07:56:16;20.80;67.10
33827;DHT22;20128;45.582;5.298;2022-09-09T07:58:45;20.90;67.10
33827;DHT22;20128;45.582;5.298;2022-09-09T08:01:17;21.10;65.60
33827;DHT22;20128;45.582;5.298;2022-09-09T08:03:44;21.20;65.10
33827;DHT22;20128;45.582;5.298;2022-09-09T08:06:10;21.30;65.40
33827;DHT22;20128;45.582;5.298;2022-09-09T08:08:38;21.40;64.50
33827;DHT22;20128;45.582;5.298;2022-09-09T08:11:11;21.50;63.20
33827;DHT22;20128;45.582;5.298;2022-09-09T08:13:38;21.60;62.60
33827;DHT22;20128;45.582;5.298;2022-09-09T08:16:13;21.70;62.10
33827;DHT22;20128;45.582;5.298;2022-09-09T08:18:39;21.80;60.90
33827;DHT22;20128;45.582;5.298;2022-09-09T08:21:22;21.90;58.40
33827;DHT22;20128;45.582;5.298;2022-09-09T08:23:51;22.00;57.30
33827;DHT22;20128;45.582;5.298;2022-09-09T08:26:38;22.00;58.50
33827;DHT22;20128;45.582;5.298;2022-09-09T08:29:06;22.10;57.60
33827;DHT22;20128;45.582;5.298;2022-09-09T08:31:38;22.00;57.90
33827;DHT22;20128;45.582;5.298;2022-09-09T08:34:04;21.90;57.80
33827;DHT22;20128;45.582;5.298;2022-09-09T08:36:33;21.80;58.70
33827;DHT22;20128;45.582;5.298;2022-09-09T08:39:00;21.80;58.80
33827;DHT22;20128;45.582;5.298;2022-09-09T08:52:30;21.90;59.40
33827;DHT22;20128;45.582;5.298;2022-09-09T08:55:49;21.90;58.40
33827;DHT22;20128;45.582;5.298;2022-09-09T08:57:52;21.90;59.00
33827;DHT22;20128;45.582;5.298;2022-09-09T09:00:19;22.00;58.90
33827;DHT22;20128;45.582;5.298;2022-09-09T09:03:11;22.10;58.60
33827;DHT22;20128;45.582;5.298;2022-09-09T09:05:44;22.20;58.10
33827;DHT22;20128;45.582;5.298;2022-09-09T09:10:56;22.30;58.10
33827;DHT22;20128;45.582;5.298;2022-09-09T09:13:45;22.40;59.00
33827;DHT22;20128;45.582;5.298;2022-09-09T09:16:32;22.40;54.40
33827;DHT22;20128;45.582;5.298;2022-09-09T09:18:59;22.30;55.00
33827;DHT22;20128;45.582;5.298;2022-09-09T09:24:07;22.40;54.50
33827;DHT22;20128;45.582;5.298;2022-09-09T09:26:37;22.60;53.90
33827;DHT22;20128;45.582;5.298;2022-09-09T09:29:14;22.90;51.70
33827;DHT22;20128;45.582;5.298;2022-09-09T09:31:53;23.20;50.40
33827;DHT22;20128;45.582;5.298;2022-09-09T09:34:20;23.40;49.40
33827;DHT22;20128;45.582;5.298;2022-09-09T09:39:31;23.50;49.10
33827;DHT22;20128;45.582;5.298;2022-09-09T09:42:10;23.70;46.80
33827;DHT22;20128;45.582;5.298;2022-09-09T09:44:39;23.70;46.70
33827;DHT22;20128;45.582;5.298;2022-09-09T09:49:33;23.70;47.40
33827;DHT22;20128;45.582;5.298;2022-09-09T09:52:03;23.90;46.80
33827;DHT22;20128;45.582;5.298;2022-09-09T09:54:33;24.10;46.50
33827;DHT22;20128;45.582;5.298;2022-09-09T09:57:14;24.40;45.40
33827;DHT22;20128;45.582;5.298;2022-09-09T09:59:40;24.60;45.10
33827;DHT22;20128;45.582;5.298;2022-09-09T10:02:22;24.80;44.40
33827;DHT22;20128;45.582;5.298;2022-09-09T10:05:08;24.90;44.20
33827;DHT22;20128;45.582;5.298;2022-09-09T10:07:37;24.90;44.10
33827;DHT22;20128;45.582;5.298;2022-09-09T10:10:04;25.10;43.90
33827;DHT22;20128;45.582;5.298;2022-09-09T10:20:59;25.60;44.00
33827;DHT22;20128;45.582;5.298;2022-09-09T10:36:54;26.30;39.30
33827;DHT22;20128;45.582;5.298;2022-09-09T10:39:35;26.40;39.70
33827;DHT22;20128;45.582;5.298;2022-09-09T10:42:14;26.50;39.80
33827;DHT22;20128;45.582;5.298;2022-09-09T10:53:36;26.30;39.20
33827;DHT22;20128;45.582;5.298;2022-09-09T10:56:09;26.20;39.90
33827;DHT22;20128;45.582;5.298;2022-09-09T11:01:29;26.40;39.80
33827;DHT22;20128;45.582;5.298;2022-09-09T11:04:01;26.50;39.00
33827;DHT22;20128;45.582;5.298;2022-09-09T11:06:32;26.60;38.90
33827;DHT22;20128;45.582;5.298;2022-09-09T11:09:01;26.80;39.20
33827;DHT22;20128;45.582;5.298;2022-09-09T11:11:49;27.00;39.00
33827;DHT22;20128;45.582;5.298;2022-09-09T11:14:26;27.10;39.00
33827;DHT22;20128;45.582;5.298;2022-09-09T11:17:04;27.20;39.00
33827;DHT22;20128;45.582;5.298;2022-09-09T11:19:40;27.20;38.50
33827;DHT22;20128;45.582;5.298;2022-09-09T11:25:04;27.30;38.50
33827;DHT22;20128;45.582;5.298;2022-09-09T11:33:09;27.40;38.00
33827;DHT22;20128;45.582;5.298;2022-09-09T11:38:19;27.40;38.30
33827;DHT22;20128;45.582;5.298;2022-09-09T11:40:47;27.40;38.00
33827;DHT22;20128;45.582;5.298;2022-09-09T11:43:29;27.40;37.20
33827;DHT22;20128;45.582;5.298;2022-09-09T11:46:00;27.30;36.20
33827;DHT22;20128;45.582;5.298;2022-09-09T11:51:09;27.20;36.00
33827;DHT22;20128;45.582;5.298;2022-09-09T11:54:26;27.10;36.60
33827;DHT22;20128;45.582;5.298;2022-09-09T11:56:45;27.00;36.90
33827;DHT22;20128;45.582;5.298;2022-09-09T11:59:26;26.90;37.30
33827;DHT22;20128;45.582;5.298;2022-09-09T12:02:12;26.80;37.20
33827;DHT22;20128;45.582;5.298;2022-09-09T12:05:08;26.70;37.70
33827;DHT22;20128;45.582;5.298;2022-09-09T12:07:52;26.80;38.20
33827;DHT22;20128;45.582;5.298;2022-09-09T12:10:29;26.80;37.30
33827;DHT22;20128;45.582;5.298;2022-09-09T12:12:55;26.70;36.20
33827;DHT22;20128;45.582;5.298;2022-09-09T12:15:32;26.70;37.10
33827;DHT22;20128;45.582;5.298;2022-09-09T12:17:58;26.80;37.40
33827;DHT22;20128;45.582;5.298;2022-09-09T12:20:34;26.90;36.30
33827;DHT22;20128;45.582;5.298;2022-09-09T12:31:15;26.80;36.20
33827;DHT22;20128;45.582;5.298;2022-09-09T12:33:44;26.90;36.70
33827;DHT22;20128;45.582;5.298;2022-09-09T12:36:32;26.80;36.60
33827;DHT22;20128;45.582;5.298;2022-09-09T12:39:10;26.90;36.10
33827;DHT22;20128;45.582;5.298;2022-09-09T12:41:41;26.80;35.80
33827;DHT22;20128;45.582;5.298;2022-09-09T12:44:09;26.80;36.10
33827;DHT22;20128;45.582;5.298;2022-09-09T12:46:41;26.80;35.60
33827;DHT22;20128;45.582;5.298;2022-09-09T12:49:34;26.80;35.70
33827;DHT22;20128;45.582;5.298;2022-09-09T12:52:02;26.90;34.60
33827;DHT22;20128;45.582;5.298;2022-09-09T12:54:32;26.90;35.00
33827;DHT22;20128;45.582;5.298;2022-09-09T12:56:58;26.90;35.30
33827;DHT22;20128;45.582;5.298;2022-09-09T12:59:26;26.90;36.20
33827;DHT22;20128;45.582;5.298;2022-09-09T13:01:59;27.00;35.20
33827;DHT22;20128;45.582;5.298;2022-09-09T13:04:25;27.20;35.10
33827;DHT22;20128;45.582;5.298;2022-09-09T13:06:51;27.20;36.10
33827;DHT22;20128;45.582;5.298;2022-09-09T13:09:20;27.20;35.40
33827;DHT22;20128;45.582;5.298;2022-09-09T13:11:52;27.20;35.60
33827;DHT22;20128;45.582;5.298;2022-09-09T13:14:33;27.20;35.40
33827;DHT22;20128;45.582;5.298;2022-09-09T13:17:04;27.20;35.10
33827;DHT22;20128;45.582;5.298;2022-09-09T13:19:34;27.20;35.30
33827;DHT22;20128;45.582;5.298;2022-09-09T13:22:14;27.20;35.80
33827;DHT22;20128;45.582;5.298;2022-09-09T13:24:44;27.30;35.90
33827;DHT22;20128;45.582;5.298;2022-09-09T13:27:40;27.40;35.70
33827;DHT22;20128;45.582;5.298;2022-09-09T13:30:26;27.40;35.90
33827;DHT22;20128;45.582;5.298;2022-09-09T13:35:35;27.00;35.90
33827;DHT22;20128;45.582;5.298;2022-09-09T13:38:12;27.00;36.40
33827;DHT22;20128;45.582;5.298;2022-09-09T13:40:39;27.10;36.40
33827;DHT22;20128;45.582;5.298;2022-09-09T13:43:04;27.10;36.10
33827;DHT22;20128;45.582;5.298;2022-09-09T13:45:31;27.10;36.20
33827;DHT22;20128;45.582;5.298;2022-09-09T13:47:56;27.20;36.00
33827;DHT22;20128;45.582;5.298;2022-09-09T13:50:30;27.30;35.50
33827;DHT22;20128;45.582;5.298;2022-09-09T13:52:56;27.40;34.90
33827;DHT22;20128;45.582;5.298;2022-09-09T13:55:27;27.40;35.10
33827;DHT22;20128;45.582;5.298;2022-09-09T13:57:55;27.40;35.10
33827;DHT22;20128;45.582;5.298;2022-09-09T14:00:22;27.30;35.40
33827;DHT22;20128;45.582;5.298;2022-09-09T14:02:49;27.30;36.90
33827;DHT22;20128;45.582;5.298;2022-09-09T14:05:15;27.40;36.40
33827;DHT22;20128;45.582;5.298;2022-09-09T14:07:43;27.50;35.20
33827;DHT22;20128;45.582;5.298;2022-09-09T14:10:09;27.40;35.30
33827;DHT22;20128;45.582;5.298;2022-09-09T14:12:35;27.50;34.70
33827;DHT22;20128;45.582;5.298;2022-09-09T14:15:05;27.50;34.40
33827;DHT22;20128;45.582;5.298;2022-09-09T14:17:33;27.40;35.00
33827;DHT22;20128;45.582;5.298;2022-09-09T14:20:00;27.20;35.00
33827;DHT22;20128;45.582;5.298;2022-09-09T14:22:26;27.30;37.70
33827;DHT22;20128;45.582;5.298;2022-09-09T14:24:53;27.30;37.00
33827;DHT22;20128;45.582;5.298;2022-09-09T14:27:19;27.30;36.80
33827;DHT22;20128;45.582;5.298;2022-09-09T14:29:45;27.30;37.50
33827;DHT22;20128;45.582;5.298;2022-09-09T14:32:11;27.30;37.60
33827;DHT22;20128;45.582;5.298;2022-09-09T14:34:37;27.40;37.20
33827;DHT22;20128;45.582;5.298;2022-09-09T14:37:03;27.40;35.40
33827;DHT22;20128;45.582;5.298;2022-09-09T14:39:29;27.40;36.10
33827;DHT22;20128;45.582;5.298;2022-09-09T14:41:55;27.40;35.30
33827;DHT22;20128;45.582;5.298;2022-09-09T14:44:21;27.30;36.10
33827;DHT22;20128;45.582;5.298;2022-09-09T14:46:47;27.30;37.50
33827;DHT22;20128;45.582;5.298;2022-09-09T14:49:15;27.20;38.60
33827;DHT22;20128;45.582;5.298;2022-09-09T14:51:41;27.20;39.30
33827;DHT22;20128;45.582;5.298;2022-09-09T14:54:07;27.40;39.80
33827;DHT22;20128;45.582;5.298;2022-09-09T14:56:33;27.60;39.20
33827;DHT22;20128;45.582;5.298;2022-09-09T14:59:00;27.60;38.50
33827;DHT22;20128;45.582;5.298;2022-09-09T15:01:27;27.70;39.20
33827;DHT22;20128;45.582;5.298;2022-09-09T15:03:55;27.60;38.80
33827;DHT22;20128;45.582;5.298;2022-09-09T15:06:23;27.60;39.30
33827;DHT22;20128;45.582;5.298;2022-09-09T15:08:51;27.50;37.30
33827;DHT22;20128;45.582;5.298;2022-09-09T15:11:17;27.50;38.10
33827;DHT22;20128;45.582;5.298;2022-09-09T15:13:43;27.40;39.30
33827;DHT22;20128;45.582;5.298;2022-09-09T15:16:15;27.40;39.40
33827;DHT22;20128;45.582;5.298;2022-09-09T15:18:41;27.30;39.60
33827;DHT22;20128;45.582;5.298;2022-09-09T15:21:16;27.30;39.80
33827;DHT22;20128;45.582;5.298;2022-09-09T15:23:43;27.40;39.50
33827;DHT22;20128;45.582;5.298;2022-09-09T15:26:09;27.50;38.30
33827;DHT22;20128;45.582;5.298;2022-09-09T15:28:36;27.60;37.40
33827;DHT22;20128;45.582;5.298;2022-09-09T15:31:08;27.50;38.70
33827;DHT22;20128;45.582;5.298;2022-09-09T15:33:34;27.30;39.30
33827;DHT22;20128;45.582;5.298;2022-09-09T15:36:23;27.20;40.00
33827;DHT22;20128;45.582;5.298;2022-09-09T15:38:50;27.20;40.40
33827;DHT22;20128;45.582;5.298;2022-09-09T15:41:17;27.20;39.80
33827;DHT22;20128;45.582;5.298;2022-09-09T15:43:47;27.20;40.30
33827;DHT22;20128;45.582;5.298;2022-09-09T15:48:43;27.10;40.50
33827;DHT22;20128;45.582;5.298;2022-09-09T15:51:10;27.10;40.50
33827;DHT22;20128;45.582;5.298;2022-09-09T15:53:37;27.10;39.90
33827;DHT22;20128;45.582;5.298;2022-09-09T15:56:05;27.10;38.70
33827;DHT22;20128;45.582;5.298;2022-09-09T15:58:32;27.10;39.20
33827;DHT22;20128;45.582;5.298;2022-09-09T16:01:09;27.20;39.20
33827;DHT22;20128;45.582;5.298;2022-09-09T16:03:38;27.20;38.30
33827;DHT22;20128;45.582;5.298;2022-09-09T16:06:05;27.20;40.10
33827;DHT22;20128;45.582;5.298;2022-09-09T16:08:35;27.20;40.50
33827;DHT22;20128;45.582;5.298;2022-09-09T16:11:13;27.20;39.60
33827;DHT22;20128;45.582;5.298;2022-09-09T16:13:43;27.20;40.00
33827;DHT22;20128;45.582;5.298;2022-09-09T16:16:11;27.20;40.30
33827;DHT22;20128;45.582;5.298;2022-09-09T16:18:47;27.20;40.40
33827;DHT22;20128;45.582;5.298;2022-09-09T16:21:18;27.10;40.80
33827;DHT22;20128;45.582;5.298;2022-09-09T16:23:45;27.00;41.00
33827;DHT22;20128;45.582;5.298;2022-09-09T16:26:13;27.00;40.40
33827;DHT22;20128;45.582;5.298;2022-09-09T16:28:39;27.00;40.00
33827;DHT22;20128;45.582;5.298;2022-09-09T16:31:08;26.90;39.80
33827;DHT22;20128;45.582;5.298;2022-09-09T16:33:36;26.90;40.10
33827;DHT22;20128;45.582;5.298;2022-09-09T16:36:09;26.80;40.70
33827;DHT22;20128;45.582;5.298;2022-09-09T16:38:36;26.70;41.00
33827;DHT22;20128;45.582;5.298;2022-09-09T16:41:03;26.80;40.60
33827;DHT22;20128;45.582;5.298;2022-09-09T16:43:34;26.70;40.80
33827;DHT22;20128;45.582;5.298;2022-09-09T16:46:01;26.60;41.10
33827;DHT22;20128;45.582;5.298;2022-09-09T16:48:33;26.60;41.10
33827;DHT22;20128;45.582;5.298;2022-09-09T16:51:07;26.60;41.00
33827;DHT22;20128;45.582;5.298;2022-09-09T16:53:34;26.60;41.00
33827;DHT22;20128;45.582;5.298;2022-09-09T16:56:06;26.60;40.90
33827;DHT22;20128;45.582;5.298;2022-09-09T16:58:32;26.60;40.60
33827;DHT22;20128;45.582;5.298;2022-09-09T17:00:59;26.60;40.70
33827;DHT22;20128;45.582;5.298;2022-09-09T17:03:25;26.50;40.80
33827;DHT22;20128;45.582;5.298;2022-09-09T17:05:51;26.50;40.60
33827;DHT22;20128;45.582;5.298;2022-09-09T17:08:17;26.50;40.70
33827;DHT22;20128;45.582;5.298;2022-09-09T17:10:43;26.50;40.90
33827;DHT22;20128;45.582;5.298;2022-09-09T17:13:09;26.50;41.10
33827;DHT22;20128;45.582;5.298;2022-09-09T17:15:40;26.50;41.30
33827;DHT22;20128;45.582;5.298;2022-09-09T17:18:09;26.50;41.20
33827;DHT22;20128;45.582;5.298;2022-09-09T17:20:36;26.40;41.20
33827;DHT22;20128;45.582;5.298;2022-09-09T17:23:02;26.30;41.30
33827;DHT22;20128;45.582;5.298;2022-09-09T17:25:28;26.30;41.50
33827;DHT22;20128;45.582;5.298;2022-09-09T17:27:53;26.30;41.70
33827;DHT22;20128;45.582;5.298;2022-09-09T17:30:19;26.30;41.80
33827;DHT22;20128;45.582;5.298;2022-09-09T17:32:45;26.20;42.00
33827;DHT22;20128;45.582;5.298;2022-09-09T17:35:11;26.20;42.30
33827;DHT22;20128;45.582;5.298;2022-09-09T17:37:37;26.20;42.00
33827;DHT22;20128;45.582;5.298;2022-09-09T17:40:03;26.20;42.00
33827;DHT22;20128;45.582;5.298;2022-09-09T17:42:29;26.20;41.90
33827;DHT22;20128;45.582;5.298;2022-09-09T17:44:55;26.10;41.90
33827;DHT22;20128;45.582;5.298;2022-09-09T17:47:20;26.10;41.80
33827;DHT22;20128;45.582;5.298;2022-09-09T17:49:46;26.00;41.70
33827;DHT22;20128;45.582;5.298;2022-09-09T17:52:12;25.90;42.30
33827;DHT22;20128;45.582;5.298;2022-09-09T17:54:37;25.90;42.50
33827;DHT22;20128;45.582;5.298;2022-09-09T17:57:03;25.80;42.90
33827;DHT22;20128;45.582;5.298;2022-09-09T17:59:29;25.70;43.20
33827;DHT22;20128;45.582;5.298;2022-09-09T18:01:55;25.60;43.60